Time;durP1;ratioP1;P1;durP2;ratioP2;P2;SDS_P1;SDS_P2;PMS_P1;PMS_P2;Temp;Humidity;BMP_temperature;BMP_pressure;BME280_temperature;BME280_humidity;BME280_pressure;Samples;Min_cycle;Max_cycle;Signal;HPM_P1;HPM_P2
2022/09/02 00:00:31;;;;;;;5.72;3.67;;;;;;;13.91;74.95;95963.84;10340381;28;97613;-63
2022/09/02 00:05:36;;;;;;;5.35;3.45;;;;;;;13.89;75.10;95957.13;10344248;28;98408;-62
2022/09/02 00:10:41;;;;;;;5.57;3.40;;;;;;;13.87;74.68;95954.69;10368112;28;96946;-62
2022/09/02 00:15:44;;;;;;;18.58;12.48;;;;;;;13.86;74.76;95953.03;10369406;28;97491;-62
2022/09/02 00:20:49;;;;;;;5.60;3.78;;;;;;;13.76;75.79;95949.84;10366643;28;98088;-62
2022/09/02 00:25:52;;;;;;;4.30;3.28;;;;;;;13.67;75.73;95946.44;10356554;28;99091;-62
2022/09/02 00:30:55;;;;;;;4.35;3.70;;;;;;;13.70;75.29;95945.28;10362634;28;96923;-63
2022/09/02 00:36:01;;;;;;;5.85;4.05;;;;;;;13.67;76.07;95945.63;10347617;28;99099;-62
2022/09/02 00:41:06;;;;;;;5.43;4.25;;;;;;;13.56;76.06;95942.41;10338089;28;97849;-62
2022/09/02 00:46:11;;;;;;;7.32;4.20;;;;;;;13.46;76.55;95936.56;10348909;28;97053;-64
2022/09/02 00:51:16;;;;;;;8.98;4.55;;;;;;;13.39;76.71;95944.34;10341157;28;98344;-63
2022/09/02 00:56:23;;;;;;;6.80;4.57;;;;;;;13.33;76.46;95946.81;10344742;28;97866;-62
2022/09/02 01:01:26;;;;;;;6.68;4.43;;;;;;;13.27;76.98;95937.81;10346369;28;98887;-62
2022/09/02 01:06:32;;;;;;;7.50;5.00;;;;;;;13.23;77.41;95939.16;10340766;28;98304;-63
2022/09/02 01:11:41;;;;;;;5.32;4.68;;;;;;;13.17;77.48;95940.66;10343908;28;98789;-62
2022/09/02 01:16:47;;;;;;;7.65;4.88;;;;;;;13.14;77.81;95933.13;10353110;28;98668;-62
2022/09/02 01:21:53;;;;;;;6.70;5.00;;;;;;;13.08;77.98;95938.25;10353904;28;97633;-62
2022/09/02 01:26:58;;;;;;;6.32;4.25;;;;;;;13.07;78.22;95937.44;10343229;28;97216;-62
2022/09/02 01:32:01;;;;;;;5.00;4.50;;;;;;;13.04;77.24;95948.25;10340654;28;97122;-62
2022/09/02 01:37:05;;;;;;;8.77;4.75;;;;;;;12.99;77.91;95937.47;10349326;28;98723;-62
2022/09/02 01:42:09;;;;;;;5.93;4.72;;;;;;;13.03;77.92;95944.00;10341011;28;96844;-62
2022/09/02 01:47:12;;;;;;;5.05;4.55;;;;;;;12.97;77.79;95932.38;10341191;28;97080;-62
2022/09/02 01:52:18;;;;;;;8.40;5.30;;;;;;;12.90;78.22;95925.34;10345380;28;99113;-62
2022/09/02 01:57:23;;;;;;;6.63;4.97;;;;;;;12.91;78.36;95919.13;10340607;28;97073;-62
2022/09/02 02:02:26;;;;;;;9.13;4.22;;;;;;;12.90;77.84;95931.41;10338806;28;98637;-62
2022/09/02 02:07:30;;;;;;;5.70;4.65;;;;;;;12.83;78.24;95926.00;10352835;28;97692;-62
2022/09/02 02:12:33;;;;;;;6.25;5.40;;;;;;;12.78;78.21;95917.84;10342323;28;96882;-62
2022/09/02 02:17:36;;;;;;;6.22;5.18;;;;;;;12.76;78.45;95925.06;10347580;28;97137;-62
2022/09/02 02:22:41;;;;;;;7.28;4.93;;;;;;;12.73;78.56;95920.16;10347016;28;97156;-62
2022/09/02 02:27:44;;;;;;;5.80;4.70;;;;;;;12.74;78.14;95927.03;10342997;28;99234;-62
2022/09/02 02:32:47;;;;;;;7.35;5.30;;;;;;;12.73;79.03;95917.53;10345438;28;97792;-62
2022/09/02 02:37:52;;;;;;;7.45;5.72;;;;;;;12.75;79.27;95922.59;10349778;28;100060;-63
2022/09/02 02:42:55;;;;;;;6.22;5.63;;;;;;;12.75;79.02;95922.59;10346758;28;98726;-62
2022/09/02 02:47:58;;;;;;;8.30;5.80;;;;;;;12.73;79.02;95920.16;10342001;28;99003;-62
2022/09/02 02:53:02;;;;;;;6.78;5.72;;;;;;;12.69;78.42;95921.47;10355170;28;97681;-62
2022/09/02 02:58:06;;;;;;;6.70;5.83;;;;;;;12.67;78.95;95920.84;10345998;28;98435;-63
2022/09/02 03:03:10;;;;;;;9.55;5.93;;;;;;;12.63;79.22;95914.28;10346479;28;98639;-62
2022/09/02 03:08:17;;;;;;;6.18;5.18;;;;;;;12.52;78.92;95901.56;10347235;28;99074;-62
2022/09/02 03:13:21;;;;;;;8.93;6.07;;;;;;;12.53;79.16;95913.66;10353381;28;97809;-62
2022/09/02 03:18:24;;;;;;;10.43;6.30;;;;;;;12.49;79.08;95905.31;10345818;28;98587;-62
2022/09/02 03:23:28;;;;;;;8.27;6.22;;;;;;;12.43;79.19;95904.19;10350052;28;99064;-63
2022/09/02 03:28:32;;;;;;;7.73;6.37;;;;;;;12.44;79.38;95900.59;10349061;28;96970;-62
2022/09/02 03:33:35;;;;;;;6.43;5.22;;;;;;;12.39;79.48;95897.66;10349164;28;97412;-62
2022/09/02 03:38:39;;;;;;;8.85;5.50;;;;;;;12.35;79.60;95896.34;10341333;28;98375;-62
2022/09/02 03:43:42;;;;;;;9.23;6.40;;;;;;;12.34;79.42;95894.72;10343567;28;97616;-62
2022/09/02 03:48:44;;;;;;;8.90;6.72;;;;;;;12.35;79.45;95906.00;10338343;28;97634;-63
2022/09/02 03:53:49;;;;;;;5.80;4.80;;;;;;;12.25;79.65;95895.72;10351491;28;98964;-62
2022/09/02 03:58:52;;;;;;;5.73;5.13;;;;;;;12.25;79.04;95901.78;10344525;28;97808;-62
2022/09/02 04:03:56;;;;;;;6.43;4.75;;;;;;;12.18;79.33;95894.72;10340572;28;97696;-62
2022/09/02 04:09:01;;;;;;;9.15;6.05;;;;;;;12.12;79.86;95894.41;10345284;28;99556;-62
2022/09/02 04:14:04;;;;;;;9.05;6.50;;;;;;;12.15;79.71;95895.09;10337697;28;99081;-62
2022/09/02 04:19:08;;;;;;;8.50;6.85;;;;;;;12.12;79.82;95886.56;10339454;28;97921;-62
2022/09/02 04:24:12;;;;;;;8.55;6.30;;;;;;;12.10;79.74;95888.53;10339684;28;97658;-63
2022/09/02 04:29:16;;;;;;;6.38;5.40;;;;;;;12.01;79.79;95886.91;10366592;28;96954;-63
2022/09/02 04:34:20;;;;;;;6.57;5.45;;;;;;;11.97;79.64;95898.72;10350278;28;98921;-62
2022/09/02 04:39:24;;;;;;;6.53;5.82;;;;;;;11.91;80.10;95886.25;10345876;28;97771;-62
2022/09/02 04:44:27;;;;;;;10.33;7.30;;;;;;;11.92;79.84;95895.75;10347431;28;97157;-62
2022/09/02 04:49:32;;;;;;;6.75;5.72;;;;;;;11.86;80.01;95891.16;10341967;28;98684;-62
2022/09/02 04:54:36;;;;;;;7.77;6.23;;;;;;;11.89;80.22;95896.88;10339593;28;97391;-63
2022/09/02 04:59:39;;;;;;;7.43;6.10;;;;;;;11.84;79.90;95898.38;10336302;28;99053;-62
2022/09/02 05:04:42;;;;;;;7.93;6.05;;;;;;;11.81;80.00;95898.69;10351201;28;97898;-62
2022/09/02 05:09:46;;;;;;;10.93;8.30;;;;;;;11.84;80.70;95901.81;10360146;28;98704;-63
2022/09/02 05:14:52;;;;;;;10.13;7.88;;;;;;;11.96;80.69;95907.53;10347962;28;98474;-63
2022/09/02 05:19:55;;;;;;;7.65;6.82;;;;;;;11.93;80.94;95913.09;10337536;28;99445;-62
2022/09/02 05:24:59;;;;;;;10.57;7.53;;;;;;;11.93;80.60;95908.66;10340590;28;98084;-62
2022/09/02 05:30:04;;;;;;;10.33;7.03;;;;;;;11.97;80.98;95911.78;10355070;28;99078;-62
2022/09/02 05:35:07;;;;;;;10.47;8.70;;;;;;;12.00;81.17;95914.06;10340857;28;97773;-62
2022/09/02 05:40:12;;;;;;;8.93;7.68;;;;;;;12.10;81.30;95914.72;10349960;28;96770;-62
2022/09/02 05:45:17;;;;;;;11.77;8.18;;;;;;;12.14;81.35;95903.91;10341984;28;98516;-62
2022/09/02 05:50:20;;;;;;;10.77;7.45;;;;;;;12.21;81.62;95899.66;10341288;28;97082;-62
2022/09/02 05:55:25;;;;;;;8.23;6.95;;;;;;;12.31;81.61;95895.03;10338220;28;97697;-63
2022/09/02 06:00:29;;;;;;;7.50;6.47;;;;;;;12.39;81.08;95905.50;10341878;28;97616;-62
2022/09/02 06:05:31;;;;;;;6.65;5.95;;;;;;;12.48;81.20;95901.06;10353061;28;96933;-62
2022/09/02 06:10:41;;;;;;;6.55;5.72;;;;;;;12.55;81.23;95901.22;10350144;28;96924;-62
2022/09/02 06:15:44;;;;;;;10.05;7.57;;;;;;;12.75;81.56;95892.00;10348790;28;98347;-62
2022/09/02 06:20:47;;;;;;;13.02;7.18;;;;;;;12.97;81.61;95884.38;10344634;28;98300;-62
2022/09/02 06:25:51;;;;;;;11.32;7.70;;;;;;;13.15;80.79;95892.81;10348477;28;98196;-62
2022/09/02 06:30:54;;;;;;;12.27;6.80;;;;;;;13.29;80.24;95887.81;10379825;28;96703;-62
2022/09/02 06:35:57;;;;;;;6.30;5.70;;;;;;;13.36;80.02;95884.34;10382524;28;97061;-62
2022/09/02 06:41:01;;;;;;;8.90;7.05;;;;;;;13.44;80.82;95907.88;10383185;28;96913;-62
2022/09/02 06:46:04;;;;;;;9.93;7.00;;;;;;;13.57;80.41;95896.81;10367641;28;97768;-62
2022/09/02 06:51:08;;;;;;;8.23;7.32;;;;;;;13.68;80.36;95886.91;10363744;28;97418;-64
2022/09/02 06:56:12;;;;;;;9.68;7.80;;;;;;;13.88;80.13;95877.56;10381100;28;96788;-62
2022/09/02 07:01:19;;;;;;;8.57;7.25;;;;;;;13.98;79.81;95875.50;10389449;28;96964;-62
2022/09/02 07:06:23;;;;;;;8.77;7.88;;;;;;;14.11;79.55;95871.44;10400038;27;97563;-63
2022/09/02 07:11:27;;;;;;;8.85;7.95;;;;;;;14.23;79.75;95883.16;10381599;28;97000;-63
2022/09/02 07:16:33;;;;;;;11.57;7.77;;;;;;;14.50;79.85;95891.44;10385792;28;97001;-62
2022/09/02 07:21:36;;;;;;;8.65;7.38;;;;;;;14.68;79.05;95886.66;10405522;28;96775;-62
2022/09/02 07:26:41;;;;;;;8.68;7.80;;;;;;;14.86;79.20;95882.81;10403923;28;96917;-63
2022/09/02 07:31:47;;;;;;;7.75;7.00;;;;;;;15.04;77.96;95888.50;10397851;27;97296;-62
2022/09/02 07:36:51;;;;;;;6.60;5.90;;;;;;;15.20;78.33;95892.75;10391659;28;97218;-62
2022/09/02 07:41:55;;;;;;;7.77;6.97;;;;;;;15.29;77.53;95896.09;10407721;28;96659;-62
2022/09/02 07:46:58;;;;;;;8.83;7.33;;;;;;;15.43;77.21;95891.78;10402021;28;97144;-62
2022/09/02 07:52:01;;;;;;;7.07;6.38;;;;;;;15.50;76.88;95888.19;10396487;28;97004;-62
2022/09/02 07:57:06;;;;;;;7.93;7.07;;;;;;;15.69;76.56;95886.81;10397117;28;97631;-62
2022/09/02 08:02:09;;;;;;;;;;;;;;;15.90;76.45;95881.72;10395454;28;96701;-62
2022/09/02 08:07:12;;;;;;;7.32;6.63;;;;;;;16.08;76.44;95874.16;10379557;28;97242;-62
2022/09/02 08:12:16;;;;;;;7.82;7.03;;;;;;;16.11;75.54;95884.31;10395891;28;96674;-62
2022/09/02 08:17:23;;;;;;;8.77;6.57;;;;;;;16.29;75.47;95896.22;10379713;28;96980;-63
2022/09/02 08:22:32;;;;;;;7.82;6.97;;;;;;;16.35;74.90;95887.53;10395334;28;96734;-62
2022/09/02 08:27:41;;;;;;;7.65;6.85;;;;;;;16.62;74.70;95886.72;10392372;28;98035;-63
2022/09/02 08:32:44;;;;;;;8.63;6.90;;;;;;;16.94;73.94;95887.09;10411339;27;96944;-62
2022/09/02 08:37:47;;;;;;;8.20;7.20;;;;;;;17.17;73.50;95886.78;10397915;28;96737;-63
2022/09/02 08:42:54;;;;;;;8.85;8.05;;;;;;;17.21;74.04;95891.66;10399948;28;97330;-63
2022/09/02 08:48:06;;;;;;;7.03;6.32;;;;;;;17.17;73.30;95896.53;10402290;28;96736;-63
2022/09/02 08:53:16;;;;;;;7.30;6.50;;;;;;;17.43;73.50;95881.78;10399214;27;96788;-63
2022/09/02 08:58:23;;;;;;;6.85;6.18;;;;;;;17.62;71.06;95870.44;10387008;28;96673;-62
2022/09/02 09:03:30;;;;;;;6.13;5.55;;;;;;;17.83;70.19;95873.94;10378385;28;97276;-62
2022/09/02 09:08:41;;;;;;;10.57;6.57;;;;;;;17.85;70.16;95875.38;10395831;28;96869;-63
2022/09/02 09:14:16;;;;;;;7.18;5.68;;;;;;;18.19;68.89;95878.84;10402538;28;96978;-63
2022/09/02 09:19:31;;;;;;;7.32;6.05;;;;;;;18.55;69.47;95880.22;10377729;28;97100;-62
2022/09/02 09:24:38;;;;;;;7.72;5.50;;;;;;;18.94;69.13;95877.72;10396010;28;96937;-63
2022/09/02 09:29:43;;;;;;;6.43;5.80;;;;;;;19.32;68.39;95874.28;10402319;28;96697;-63
2022/09/02 09:35:00;;;;;;;6.90;6.22;;;;;;;19.41;66.88;95860.56;10390324;27;96831;-63
2022/09/02 09:40:23;;;;;;;10.20;5.95;;;;;;;19.39;67.13;95869.78;10404168;28;96830;-62
2022/09/02 09:45:30;;;;;;;9.43;6.60;;;;;;;19.53;67.78;95868.66;10395093;28;96872;-63
2022/09/02 09:50:34;;;;;;;9.20;5.43;;;;;;;19.73;65.61;95859.78;10401191;28;97001;-63
2022/09/02 09:55:51;;;;;;;6.97;4.95;;;;;;;20.18;65.49;95862.31;10409147;27;97307;-63
2022/09/02 10:00:59;;;;;;;7.53;6.20;;;;;;;20.52;64.63;95868.13;10404622;28;96965;-63
2022/09/02 10:06:18;;;;;;;8.38;5.93;;;;;;;20.91;61.74;95863.44;10395119;28;97199;-63
2022/09/02 10:11:25;;;;;;;8.45;7.13;;;;;;;21.14;61.93;95846.84;10407998;28;97060;-63
2022/09/02 10:16:48;;;;;;;5.80;5.05;;;;;;;21.56;59.68;95830.13;10392858;28;97188;-63
2022/09/02 10:22:22;;;;;;;7.05;6.07;;;;;;;21.83;58.80;95852.66;10408379;28;96773;-63
2022/09/02 10:27:49;;;;;;;7.57;5.28;;;;;;;21.75;57.85;95852.97;10384814;27;96713;-63
2022/09/02 10:33:16;;;;;;;5.35;4.47;;;;;;;21.37;57.53;95847.97;10402809;28;97347;-63
2022/09/02 10:38:35;;;;;;;4.80;4.40;;;;;;;21.17;58.61;95843.72;10406416;28;96861;-63
2022/09/02 10:43:58;;;;;;;6.30;4.35;;;;;;;21.26;58.71;95830.97;10385231;28;96701;-63
2022/09/02 10:49:12;;;;;;;4.97;4.07;;;;;;;21.43;58.36;95810.69;10402768;28;97043;-63
2022/09/02 10:54:30;;;;;;;6.22;4.90;;;;;;;21.58;58.88;95822.75;10399052;28;97062;-63
2022/09/02 10:59:39;;;;;;;5.70;4.68;;;;;;;21.81;57.88;95822.81;10376161;28;96894;-63
2022/09/02 11:04:50;;;;;;;5.45;4.93;;;;;;;22.03;57.67;95816.94;10404320;28;96720;-63
2022/09/02 11:10:03;;;;;;;8.20;4.72;;;;;;;22.13;58.78;95808.41;10398677;28;97087;-63
2022/09/02 11:15:15;;;;;;;5.20;4.53;;;;;;;22.34;57.23;95820.31;10383777;28;97007;-63
2022/09/02 11:20:30;;;;;;;7.65;5.68;;;;;;;22.52;61.43;95806.09;10389119;28;96701;-63
2022/09/02 11:25:40;;;;;;;5.30;4.57;;;;;;;22.68;57.07;95800.03;10365715;28;96908;-63
2022/09/02 11:30:49;;;;;;;4.95;4.45;;;;;;;22.94;55.54;95796.06;10401740;28;97615;-63
2022/09/02 11:35:54;;;;;;;8.02;4.88;;;;;;;23.04;56.60;95792.75;10396997;28;96703;-63
2022/09/02 11:41:39;;;;;;;4.68;4.03;;;;;;;23.42;54.52;95788.69;10411069;28;97168;-64
2022/09/02 11:47:07;;;;;;;4.47;4.00;;;;;;;23.99;52.54;95792.28;10384973;27;97723;-63
2022/09/02 11:52:24;;;;;;;5.75;3.78;;;;;;;24.29;52.35;95775.94;10389735;28;96836;-63
2022/09/02 11:57:27;;;;;;;3.88;3.42;;;;;;;24.46;52.09;95787.38;10391701;27;97314;-63
2022/09/02 12:02:42;;;;;;;5.20;3.40;;;;;;;24.71;52.65;95778.06;10398413;28;96737;-63
2022/09/02 12:07:49;;;;;;;3.42;3.03;;;;;;;24.90;51.29;95770.59;10404133;27;97131;-63
2022/09/02 12:13:06;;;;;;;6.30;3.53;;;;;;;25.11;49.77;95776.97;10399852;28;97222;-63
2022/09/02 12:18:29;;;;;;;3.60;3.10;;;;;;;25.30;49.03;95776.63;10393285;28;96709;-63
2022/09/02 12:24:15;;;;;;;3.20;2.90;;;;;;;25.43;49.75;95765.53;10373519;28;96788;-63
2022/09/02 12:29:33;;;;;;;3.95;2.78;;;;;;;25.37;49.10;95772.69;10389966;28;97987;-63
2022/09/02 12:34:55;;;;;;;4.15;3.05;;;;;;;25.41;51.17;95771.13;10397617;28;96720;-63
2022/09/02 12:40:09;;;;;;;3.05;2.63;;;;;;;25.54;50.35;95767.25;10394136;28;97171;-63
2022/09/02 12:45:25;;;;;;;3.33;3.03;;;;;;;25.47;49.10;95766.63;10401555;28;97094;-63
2022/09/02 12:50:34;;;;;;;2.90;2.60;;;;;;;25.60;50.01;95774.28;10399018;28;96659;-64
2022/09/02 12:55:39;;;;;;;3.67;2.78;;;;;;;25.76;48.99;95758.34;10398959;28;96763;-63
2022/09/02 13:00:57;;;;;;;3.50;2.80;;;;;;;25.89;46.98;95755.22;10389481;28;96712;-63
2022/09/02 13:06:06;;;;;;;4.22;2.63;;;;;;;25.89;46.48;95755.22;10394489;28;97174;-63
2022/09/02 13:12:01;;;;;;;3.45;2.70;;;;;;;25.90;46.37;95746.13;10400172;28;96944;-63
2022/09/02 13:17:14;;;;;;;;;;;;;;;25.70;47.90;95741.44;10348661;28;96924;-63
2022/09/02 13:23:02;;;;;;;3.00;2.60;;;;;;;25.61;47.71;95733.06;10349508;28;96956;-64
2022/09/02 13:28:38;;;;;;;3.25;2.55;;;;;;;25.67;46.08;95730.44;10355868;28;96973;-63
2022/09/02 13:33:43;;;;;;;4.18;2.80;;;;;;;25.25;46.11;95707.88;10334174;28;96763;-63
2022/09/02 13:38:46;;;;;;;3.85;2.80;;;;;;;25.17;46.58;95705.66;10352585;28;96871;-63
2022/09/02 13:44:05;;;;;;;6.03;3.15;;;;;;;25.39;46.59;95700.22;10355615;28;96863;-63
2022/09/02 13:49:21;;;;;;;4.57;2.35;;;;;;;25.61;47.60;95697.50;10383499;28;97801;-63
2022/09/02 13:54:31;;;;;;;3.92;2.50;;;;;;;25.72;46.55;95698.38;10400649;28;96744;-64
2022/09/02 13:59:37;;;;;;;3.60;2.70;;;;;;;25.51;47.01;95687.53;10393431;28;96742;-63
2022/09/02 14:04:41;;;;;;;3.10;2.60;;;;;;;25.33;47.21;95683.34;10387017;28;96691;-64
2022/09/02 14:09:45;;;;;;;3.75;2.70;;;;;;;25.25;47.30;95681.13;10400714;28;97103;-63
2022/09/02 14:14:48;;;;;;;4.63;2.38;;;;;;;25.41;46.75;95684.75;10396879;28;97163;-64
2022/09/02 14:20:09;;;;;;;2.83;2.05;;;;;;;25.57;45.85;95689.19;10401219;28;96779;-63
2022/09/02 14:25:14;;;;;;;6.32;2.65;;;;;;;25.66;44.98;95686.03;10392813;27;96794;-64
2022/09/02 14:30:29;;;;;;;3.67;2.30;;;;;;;25.79;44.41;95659.66;10392411;28;96805;-63
2022/09/02 14:35:33;;;;;;;3.42;2.65;;;;;;;25.85;46.67;95659.69;10384104;28;96772;-63
2022/09/02 14:40:41;;;;;;;3.92;3.10;;;;;;;25.66;46.02;95660.09;10396572;28;96816;-63
2022/09/02 14:45:48;;;;;;;5.45;3.42;;;;;;;25.18;46.99;95670.69;10403947;28;96822;-63
2022/09/02 14:51:00;;;;;;;8.93;3.35;;;;;;;24.94;47.52;95664.00;10402880;28;96691;-63
2022/09/02 14:56:06;;;;;;;3.97;3.10;;;;;;;25.24;46.88;95647.47;10398033;28;97522;-64
2022/09/02 15:01:08;;;;;;;3.40;3.10;;;;;;;25.75;46.51;95653.19;10405533;27;98091;-63
2022/09/02 15:06:13;;;;;;;4.23;3.40;;;;;;;26.04;46.19;95654.69;10406833;27;96689;-63
2022/09/02 15:11:19;;;;;;;4.30;3.22;;;;;;;25.88;45.32;95651.94;10399228;27;97271;-64
2022/09/02 15:16:22;;;;;;;3.72;3.15;;;;;;;25.32;47.28;95635.47;10391211;28;96694;-64
2022/09/02 15:21:26;;;;;;;4.45;3.58;;;;;;;25.01;48.24;95636.03;10406316;28;96990;-63
2022/09/02 15:26:29;;;;;;;4.82;2.95;;;;;;;24.73;48.29;95633.59;10402650;27;97156;-63
2022/09/02 15:31:32;;;;;;;4.35;3.28;;;;;;;24.39;49.82;95647.94;10396158;27;97982;-63
2022/09/02 15:36:36;;;;;;;4.38;3.05;;;;;;;24.22;49.90;95649.88;10396100;28;96782;-63
2022/09/02 15:41:43;;;;;;;5.53;2.95;;;;;;;23.98;48.89;95658.06;10408898;27;96968;-63
2022/09/02 15:46:46;;;;;;;4.35;3.10;;;;;;;23.68;49.34;95661.13;10392370;28;96808;-64
2022/09/02 15:51:51;;;;;;;4.55;2.70;;;;;;;23.58;50.22;95647.66;10405153;27;96724;-63
2022/09/02 15:56:58;;;;;;;3.58;3.10;;;;;;;23.30;51.21;95636.03;10400805;27;97164;-63
2022/09/02 16:02:01;;;;;;;6.55;2.90;;;;;;;23.06;52.09;95640.69;10405467;28;97105;-63
2022/09/02 16:07:05;;;;;;;2.92;2.63;;;;;;;23.10;51.71;95647.13;10397969;27;97616;-63
2022/09/02 16:12:09;;;;;;;3.13;2.83;;;;;;;23.28;51.68;95638.13;10396485;28;96885;-63
2022/09/02 16:17:12;;;;;;;5.75;2.60;;;;;;;23.52;51.64;95631.56;10397242;28;96796;-63
2022/09/02 16:22:16;;;;;;;3.45;3.03;;;;;;;23.70;51.86;95638.47;10390612;28;96991;-63
2022/09/02 16:27:50;;;;;;;6.40;3.30;;;;;;;24.11;51.08;95654.28;10396393;27;97368;-63
2022/09/02 16:32:42;;;;;;;4.53;3.10;;;;;;;23.77;52.42;95645.53;10411230;28;96817;-63
2022/09/02 16:37:46;;;;;;;8.25;7.25;;;;;;;23.34;53.55;95637.16;10375832;28;97067;-62
2022/09/02 16:42:49;;;;;;;4.65;4.15;;;;;;;23.50;53.37;95640.88;10395198;28;96925;-63
2022/09/02 16:47:52;;;;;;;5.47;4.90;;;;;;;24.03;52.68;95642.13;10386863;27;97067;-62
2022/09/02 16:52:56;;;;;;;7.30;4.07;;;;;;;23.83;53.88;95652.53;10374954;28;96927;-64
2022/09/02 16:58:01;;;;;;;8.05;3.75;;;;;;;24.17;53.17;95649.81;10361083;28;97448;-64
2022/09/02 17:03:04;;;;;;;7.25;3.75;;;;;;;24.77;52.78;95654.22;10360864;28;97200;-65
2022/09/02 17:08:08;;;;;;;6.03;4.27;;;;;;;25.30;51.44;95635.72;10357138;28;97036;-65
2022/09/02 17:13:11;;;;;;;5.47;4.00;;;;;;;25.01;51.84;95637.91;10359806;27;98676;-65
2022/09/02 17:18:14;;;;;;;4.87;4.17;;;;;;;24.04;53.23;95635.75;10350808;27;99039;-65
2022/09/02 17:23:19;;;;;;;6.50;4.53;;;;;;;23.23;55.20;95641.50;10383035;28;97441;-65
2022/09/02 17:28:25;;;;;;;6.68;4.65;;;;;;;22.59;56.67;95618.56;10363201;28;98889;-65
2022/09/02 17:33:28;;;;;;;6.68;4.43;;;;;;;22.08;58.20;95611.47;10401178;28;96995;-64
2022/09/02 17:38:33;;;;;;;5.78;5.18;;;;;;;21.55;59.67;95613.22;10400527;28;97184;-64
2022/09/02 17:43:37;;;;;;;7.22;6.03;;;;;;;21.23;60.63;95605.63;10401371;27;96737;-65
2022/09/02 17:48:40;;;;;;;7.47;5.85;;;;;;;20.93;62.04;95594.03;10388266;28;97866;-67
2022/09/02 17:54:05;;;;;;;8.30;7.47;;;;;;;20.65;63.48;95592.00;10355747;28;97720;-63
2022/09/02 17:59:27;;;;;;;10.82;9.73;;;;;;;20.45;64.13;95591.47;10374781;28;96991;-64
2022/09/02 18:04:52;;;;;;;9.70;7.63;;;;;;;20.13;65.00;95581.06;10362834;27;97125;-63
2022/09/02 18:09:56;;;;;;;25.48;22.85;;;;;;;20.00;65.02;95606.72;10382592;28;99367;-65
2022/09/02 18:15:01;;;;;;;8.52;6.90;;;;;;;19.93;65.33;95605.97;10371632;28;97219;-64
2022/09/02 18:20:09;;;;;;;8.63;6.53;;;;;;;19.80;65.58;95614.03;10358644;28;98905;-64
2022/09/02 18:25:28;;;;;;;8.05;6.25;;;;;;;19.76;66.22;95628.78;10388019;28;98183;-64
2022/09/02 18:30:38;;;;;;;7.20;6.50;;;;;;;19.66;65.55;95631.94;10382108;28;96991;-63
2022/09/02 18:35:49;;;;;;;11.82;9.30;;;;;;;19.56;66.48;95637.75;10364752;28;98948;-64
2022/09/02 18:41:06;;;;;;;8.40;7.15;;;;;;;19.55;67.04;95640.63;10381300;28;96800;-63
2022/09/02 18:46:12;;;;;;;8.32;7.53;;;;;;;19.51;66.80;95656.13;10350425;28;99139;-64
2022/09/02 18:51:24;;;;;;;9.45;8.25;;;;;;;19.50;68.24;95654.50;10374845;28;97298;-64
2022/09/02 18:56:33;;;;;;;8.88;7.88;;;;;;;19.44;68.57;95666.78;10369476;28;97552;-64
2022/09/02 19:01:43;;;;;;;10.68;8.63;;;;;;;19.39;68.79;95666.63;10373603;28;97425;-64
2022/09/02 19:06:47;;;;;;;8.45;7.00;;;;;;;19.27;69.35;95664.91;10369071;28;97888;-64
2022/09/02 19:11:51;;;;;;;11.63;7.10;;;;;;;19.11;70.09;95671.56;10366448;28;99284;-63
2022/09/02 19:16:56;;;;;;;9.75;6.13;;;;;;;19.08;69.15;95666.69;10380560;28;96899;-63
2022/09/02 19:22:03;;;;;;;6.95;4.93;;;;;;;18.91;69.84;95682.28;10386226;28;96764;-64
2022/09/02 19:27:12;;;;;;;5.75;4.95;;;;;;;18.76;70.44;95696.59;10363460;28;98599;-64
2022/09/02 19:32:15;;;;;;;7.22;5.63;;;;;;;18.70;70.71;95694.78;10379071;28;96925;-64
2022/09/02 19:37:18;;;;;;;10.40;6.47;;;;;;;18.52;71.12;95699.97;10369661;28;96789;-62
2022/09/02 19:42:23;;;;;;;10.10;6.57;;;;;;;18.33;71.73;95713.06;10369723;28;97613;-63
2022/09/02 19:47:26;;;;;;;9.23;5.70;;;;;;;18.24;72.02;95720.41;10358142;28;99556;-64
2022/09/02 19:52:49;;;;;;;8.02;6.30;;;;;;;18.30;72.57;95730.13;10374771;28;97599;-63
2022/09/02 19:57:53;;;;;;;6.75;6.00;;;;;;;18.33;72.29;95733.41;10363355;28;98295;-64
2022/09/02 20:02:56;;;;;;;6.97;6.28;;;;;;;18.34;72.68;95727.88;10360827;28;98629;-64
2022/09/02 20:07:59;;;;;;;8.93;6.75;;;;;;;18.28;72.50;95731.38;10373140;27;97718;-63
2022/09/02 20:13:04;;;;;;;10.07;7.60;;;;;;;18.27;72.80;95750.91;10372247;28;100756;-64
2022/09/02 20:18:11;;;;;;;9.40;7.55;;;;;;;18.26;72.75;95738.72;10358248;27;98356;-63
2022/09/02 20:23:15;;;;;;;10.32;7.50;;;;;;;18.29;72.64;95751.50;10361293;28;98351;-64
2022/09/02 20:28:24;;;;;;;8.43;7.63;;;;;;;18.09;73.43;95755.00;10353659;28;98417;-64
2022/09/02 20:33:37;;;;;;;11.73;8.32;;;;;;;18.08;73.87;95756.03;10375285;28;97126;-64
2022/09/02 20:38:57;;;;;;;17.35;10.25;;;;;;;18.13;73.72;95750.94;10357781;28;97479;-64
2022/09/02 20:44:26;;;;;;;7.38;6.00;;;;;;;18.10;73.79;95740.78;10368335;28;99259;-64
2022/09/02 20:49:44;;;;;;;7.82;5.40;;;;;;;18.05;73.49;95735.31;10355369;28;97310;-64
2022/09/02 20:54:55;;;;;;;14.52;10.48;;;;;;;18.04;73.63;95740.78;10355419;28;97157;-64
2022/09/02 21:00:06;;;;;;;7.10;5.90;;;;;;;18.04;73.36;95757.47;10363640;28;97229;-64
2022/09/02 21:05:14;;;;;;;12.32;9.23;;;;;;;17.91;73.62;95755.66;10373764;28;97163;-64
2022/09/02 21:10:29;;;;;;;6.72;6.00;;;;;;;17.83;74.78;95757.66;10356568;28;97329;-64
2022/09/02 21:15:39;;;;;;;7.15;6.45;;;;;;;17.76;75.44;95770.88;10379551;28;98313;-63
2022/09/02 21:20:49;;;;;;;9.02;6.47;;;;;;;17.74;75.30;95781.66;10367556;28;96814;-63
2022/09/02 21:25:55;;;;;;;9.10;8.20;;;;;;;17.67;76.12;95793.25;10357283;28;98777;-63
2022/09/02 21:31:05;;;;;;;10.60;8.10;;;;;;;17.60;76.55;95803.00;10374092;28;96793;-63
2022/09/02 21:36:13;;;;;;;10.32;8.68;;;;;;;17.49;76.63;95796.47;10369200;28;96728;-63
2022/09/02 21:41:30;;;;;;;12.02;9.05;;;;;;;17.27;77.92;95798.50;10379239;28;97196;-63
2022/09/02 21:46:44;;;;;;;10.45;9.40;;;;;;;17.19;77.88;95805.56;10385044;28;98588;-63
2022/09/02 21:51:52;;;;;;;10.18;9.20;;;;;;;17.19;77.75;95796.84;10378713;28;97630;-63
2022/09/02 21:57:13;;;;;;;8.88;7.80;;;;;;;17.27;78.02;95796.66;10401218;27;97828;-63
2022/09/02 22:02:24;;;;;;;8.93;8.02;;;;;;;17.32;77.56;95812.72;10367615;28;96845;-63
2022/09/02 22:07:33;;;;;;;10.85;8.50;;;;;;;17.41;77.63;95804.59;10375515;28;98146;-63
2022/09/02 22:12:38;;;;;;;9.93;8.93;;;;;;;17.49;77.88;95799.09;10401635;28;96796;-63
2022/09/02 22:17:48;;;;;;;8.80;7.95;;;;;;;17.52;77.74;95807.44;10389489;28;97159;-63
2022/09/02 22:22:54;;;;;;;9.10;8.20;;;;;;;17.54;77.88;95809.88;10357459;28;97170;-63
2022/09/02 22:28:05;;;;;;;11.20;7.78;;;;;;;17.51;78.14;95820.88;10378649;28;96659;-63
2022/09/02 22:33:14;;;;;;;9.00;8.10;;;;;;;17.34;77.85;95821.22;10403446;28;98708;-63
2022/09/02 22:38:24;;;;;;;8.38;7.53;;;;;;;17.31;78.46;95821.63;10381716;28;96850;-63
2022/09/02 22:43:34;;;;;;;7.20;6.45;;;;;;;17.31;77.92;95821.63;10397303;28;97985;-63
2022/09/02 22:54:11;;;;;;;5.15;3.83;;;;;;;17.35;76.86;95835.25;10350671;28;99526;-63
2022/09/02 22:59:29;;;;;;;7.07;4.18;;;;;;;17.36;76.13;95848.25;10359035;28;96922;-63
2022/09/02 23:04:47;;;;;;;5.40;3.55;;;;;;;17.33;75.46;95848.63;10368029;28;99119;-63
2022/09/02 23:09:52;;;;;;;3.83;3.30;;;;;;;17.26;75.29;95831.97;10354640;28;97627;-63
2022/09/02 23:15:14;;;;;;;3.67;3.08;;;;;;;17.30;74.60;95805.97;10375477;28;98158;-63
2022/09/02 23:20:27;;;;;;;4.28;3.15;;;;;;;17.30;74.11;95806.81;10342939;28;97492;-63
2022/09/02 23:25:42;;;;;;;3.70;2.95;;;;;;;17.30;74.09;95809.47;10355613;28;97668;-63
2022/09/02 23:30:59;;;;;;;3.40;2.75;;;;;;;17.30;73.65;95825.28;10349725;28;98675;-63
2022/09/02 23:36:12;;;;;;;3.28;2.97;;;;;;;17.32;73.70;95820.63;10372821;28;97903;-63
2022/09/02 23:41:16;;;;;;;5.88;2.85;;;;;;;17.32;73.86;95818.00;10367495;28;97193;-63
2022/09/02 23:46:30;;;;;;;5.40;3.27;;;;;;;17.37;73.53;95805.00;10347884;28;96877;-63
2022/09/02 23:51:47;;;;;;;3.13;2.83;;;;;;;17.38;73.50;95824.28;10342902;28;97075;-63
2022/09/02 23:57:00;;;;;;;3.75;3.35;;;;;;;17.21;74.31;95826.47;10390314;28;97581;-63
